Time,TemperatureF,DewpointF,PressureIn,WindDirection,WindDirectionDegrees,WindSpeedMPH,WindSpeedGustMPH,Humidity,HourlyPrecipIn,Conditions,Clouds,dailyrainin,SoftwareType,DateUTC
2013-08-09 00:00:00,60.1,54.9,29.99,West,277,0.0,0.0,83,0.00,,,0.00,Wunderground v.1.15,2013-08-09 05:00:00,
2013-08-09 01:05:00,59.4,55.2,29.99,West,277,0.0,0.0,86,0.00,,,0.00,Wunderground v.1.15,2013-08-09 06:05:00,
2013-08-09 01:10:00,59.3,55.1,29.99,West,277,0.0,0.0,86,0.00,,,0.00,Wunderground v.1.15,2013-08-09 06:10:00,
2013-08-09 01:15:00,59.2,55.0,29.99,West,278,0.0,0.0,86,0.00,,,0.00,Wunderground v.1.15,2013-08-09 06:15:00,
2013-08-09 01:20:00,59.2,55.3,29.99,West,277,0.0,0.0,87,0.00,,,0.00,Wunderground v.1.15,2013-08-09 06:20:00,
2013-08-09 01:30:00,59.3,55.7,29.98,West,278,0.0,0.0,88,0.00,,,0.00,Wunderground v.1.15,2013-08-09 06:30:00,
2013-08-09 01:40:00,59.2,55.6,29.98,West,278,0.0,0.0,88,0.00,,,0.00,Wunderground v.1.15,2013-08-09 06:40:00,
2013-08-09 01:45:00,59.3,55.7,29.98,West,277,0.0,0.0,88,0.00,,,0.00,Wunderground v.1.15,2013-08-09 06:45:00,
2013-08-09 01:50:00,59.2,55.6,29.98,West,277,0.0,0.0,88,0.00,,,0.00,Wunderground v.1.15,2013-08-09 06:50:00,
2013-08-09 01:55:00,59.0,55.1,29.98,West,277,0.0,0.0,87,0.00,,,0.00,Wunderground v.1.15,2013-08-09 06:55:00,
2013-08-09 02:05:00,58.9,55.4,29.98,West,277,0.0,0.0,88,0.00,,,0.00,Wunderground v.1.15,2013-08-09 07:05:00,
2013-08-09 02:10:00,59.0,55.4,29.98,West,277,0.0,0.0,88,0.00,,,0.00,Wunderground v.1.15,2013-08-09 07:10:00,
2013-08-09 02:20:00,58.7,54.5,29.98,West,277,0.0,0.0,86,0.00,,,0.00,Wunderground v.1.15,2013-08-09 07:20:00,
2013-08-09 02:25:00,58.5,54.3,29.98,West,277,0.0,0.0,86,0.00,,,0.00,Wunderground v.1.15,2013-08-09 07:25:00,
2013-08-09 02:35:00,58.5,55.0,29.97,West,278,0.0,0.0,88,0.00,,,0.00,Wunderground v.1.15,2013-08-09 07:35:00,
2013-08-09 02:40:00,58.4,54.9,29.97,West,278,0.0,0.0,88,0.00,,,0.00,Wunderground v.1.15,2013-08-09 07:40:00,
2013-08-09 02:45:00,58.4,54.9,29.97,West,277,0.0,0.0,88,0.00,,,0.00,Wunderground v.1.15,2013-08-09 07:45:00,
2013-08-09 02:55:00,58.2,54.7,29.97,West,277,0.0,0.0,88,0.00,,,0.00,Wunderground v.1.15,2013-08-09 07:55:00,
2013-08-09 03:05:00,58.1,54.2,29.97,West,278,0.0,0.0,87,0.00,,,0.00,Wunderground v.1.15,2013-08-09 08:05:00,
2013-08-09 03:10:00,58.1,54.2,29.97,West,278,0.0,0.0,87,0.00,,,0.00,Wunderground v.1.15,2013-08-09 08:10:00,
2013-08-09 03:20:00,58.0,54.5,29.97,West,278,0.0,0.0,88,0.00,,,0.00,Wunderground v.1.15,2013-08-09 08:20:00,
2013-08-09 03:30:00,57.8,54.3,29.97,West,277,0.0,0.0,88,0.00,,,0.00,Wunderground v.1.15,2013-08-09 08:30:00,
2013-08-09 03:35:00,57.7,53.9,29.97,West,278,0.0,0.0,87,0.00,,,0.00,Wunderground v.1.15,2013-08-09 08:35:00,
2013-08-09 03:40:00,57.6,53.8,29.97,West,277,0.0,0.0,87,0.00,,,0.00,Wunderground v.1.15,2013-08-09 08:40:00,
2013-08-09 03:50:00,57.5,53.3,29.97,West,277,0.0,0.0,86,0.00,,,0.00,Wunderground v.1.15,2013-08-09 08:50:00,
2013-08-09 04:00:00,57.7,53.5,29.97,West,278,0.0,0.0,86,0.00,,,0.00,Wunderground v.1.15,2013-08-09 09:00:00,
2013-08-09 04:05:00,57.7,53.9,29.97,West,278,0.0,0.0,87,0.00,,,0.00,Wunderground v.1.15,2013-08-09 09:05:00,
2013-08-09 04:10:00,57.7,53.9,29.97,West,277,0.0,0.0,87,0.00,,,0.00,Wunderground v.1.15,2013-08-09 09:10:00,
2013-08-09 04:15:00,57.7,54.2,29.97,West,277,0.0,0.0,88,0.00,,,0.00,Wunderground v.1.15,2013-08-09 09:15:00,
2013-08-09 04:25:00,57.8,54.3,29.98,West,277,0.0,0.0,88,0.00,,,0.00,Wunderground v.1.15,2013-08-09 09:25:00,
2013-08-09 04:35:00,57.7,53.9,29.98,West,278,0.0,0.0,87,0.00,,,0.00,Wunderground v.1.15,2013-08-09 09:35:00,
2013-08-09 04:40:00,57.7,54.2,29.98,West,277,0.0,0.0,88,0.00,,,0.00,Wunderground v.1.15,2013-08-09 09:40:00,
2013-08-09 04:45:00,57.7,54.2,29.98,West,277,0.0,0.0,88,0.00,,,0.00,Wunderground v.1.15,2013-08-09 09:45:00,
2013-08-09 04:55:00,57.7,54.2,29.98,West,277,0.0,0.0,88,0.00,,,0.00,Wunderground v.1.15,2013-08-09 09:55:00,
2013-08-09 05:05:00,57.8,54.0,29.98,West,278,0.0,0.0,87,0.00,,,0.00,Wunderground v.1.15,2013-08-09 10:05:00,
2013-08-09 05:10:00,57.8,53.6,29.98,West,277,0.0,0.0,86,0.00,,,0.00,Wunderground v.1.15,2013-08-09 10:10:00,
2013-08-09 05:20:00,57.8,53.6,29.98,West,277,0.0,0.0,86,0.00,,,0.00,Wunderground v.1.15,2013-08-09 10:20:00,
2013-08-09 05:30:00,57.9,53.7,29.98,West,277,0.0,0.0,86,0.00,,,0.00,Wunderground v.1.15,2013-08-09 10:30:00,
2013-08-09 05:40:00,57.9,53.7,29.98,West,277,0.0,0.0,86,0.00,,,0.00,Wunderground v.1.15,2013-08-09 10:40:00,
2013-08-09 05:50:00,58.0,53.8,29.98,West,278,0.0,0.0,86,0.00,,,0.00,Wunderground v.1.15,2013-08-09 10:50:00,
2013-08-09 06:00:00,58.0,53.8,29.98,West,278,0.0,0.0,86,0.00,,,0.00,Wunderground v.1.15,2013-08-09 11:00:00,
2013-08-09 06:10:00,57.6,51.1,29.98,West,278,0.0,0.0,79,0.00,,,0.00,Wunderground v.1.15,2013-08-09 11:10:00,
2013-08-09 06:20:00,57.7,51.6,29.98,West,277,0.0,0.0,80,0.00,,,0.00,Wunderground v.1.15,2013-08-09 11:20:00,
2013-08-09 06:30:00,58.0,52.9,29.98,North,9,0.0,0.0,83,0.00,,,0.00,Wunderground v.1.15,2013-08-09 11:30:00,
2013-08-09 06:40:00,58.1,53.3,29.98,North,9,0.0,0.0,84,0.00,,,0.00,Wunderground v.1.15,2013-08-09 11:40:00,
2013-08-09 06:50:00,58.4,53.9,29.99,North,9,0.0,0.0,85,0.00,,,0.00,Wunderground v.1.15,2013-08-09 11:50:00,
2013-08-09 07:00:00,58.8,54.6,29.99,North,9,0.0,0.0,86,0.00,,,0.00,Wunderground v.1.15,2013-08-09 12:00:00,
2013-08-09 07:10:00,59.3,55.7,29.99,North,9,0.0,0.0,88,0.00,,,0.00,Wunderground v.1.15,2013-08-09 12:10:00,
2013-08-09 07:20:00,59.4,55.8,30.00,North,9,0.0,0.0,88,0.00,,,0.00,Wunderground v.1.15,2013-08-09 12:20:00,
2013-08-09 07:25:00,59.5,55.9,29.99,North,9,0.0,0.0,88,0.00,,,0.00,Wunderground v.1.15,2013-08-09 12:25:00,
2013-08-09 07:35:00,59.7,55.8,29.99,NW,313,0.0,0.0,87,0.00,,,0.00,Wunderground v.1.15,2013-08-09 12:35:00,
2013-08-09 07:40:00,60.0,56.4,29.99,NW,313,0.0,0.0,88,0.00,,,0.00,Wunderground v.1.15,2013-08-09 12:40:00,
2013-08-09 07:45:00,60.5,56.6,30.00,NW,321,0.0,0.0,87,0.00,,,0.00,Wunderground v.1.15,2013-08-09 12:45:00,
2013-08-09 07:50:00,60.8,56.6,30.00,NW,321,0.0,0.0,86,0.00,,,0.00,Wunderground v.1.15,2013-08-09 12:50:00,
2013-08-09 08:00:00,61.6,57.0,30.00,NW,321,0.0,0.0,85,0.00,,,0.00,Wunderground v.1.15,2013-08-09 13:00:00,
2013-08-09 08:05:00,61.8,57.2,29.99,NW,321,0.0,0.0,85,0.00,,,0.00,Wunderground v.1.15,2013-08-09 13:05:00,
2013-08-09 08:15:00,62.3,57.7,29.99,NW,321,0.0,0.0,85,0.00,,,0.00,Wunderground v.1.15,2013-08-09 13:15:00,
2013-08-09 08:25:00,63.1,57.5,29.99,NE,40,0.0,0.0,82,0.00,,,0.00,Wunderground v.1.15,2013-08-09 13:25:00,
2013-08-09 08:35:00,63.8,57.5,29.98,NE,40,0.0,0.0,80,0.00,,,0.00,Wunderground v.1.15,2013-08-09 13:35:00,
2013-08-09 08:45:00,64.5,57.8,29.98,NE,40,0.0,0.0,79,0.00,,,0.00,Wunderground v.1.15,2013-08-09 13:45:00,
2013-08-09 08:50:00,64.9,57.9,29.98,NE,40,0.0,0.0,78,0.00,,,0.00,Wunderground v.1.15,2013-08-09 13:50:00,
2013-08-09 08:55:00,65.2,58.2,29.98,NE,40,0.0,0.0,78,0.00,,,0.00,Wunderground v.1.15,2013-08-09 13:55:00,
2013-08-09 09:05:00,66.4,59.3,29.98,NNE,29,0.0,0.0,78,0.00,,,0.00,Wunderground v.1.15,2013-08-09 14:05:00,
2013-08-09 09:10:00,66.9,59.1,29.98,NNE,29,0.0,0.0,76,0.00,,,0.00,Wunderground v.1.15,2013-08-09 14:10:00,
2013-08-09 09:20:00,68.1,60.2,29.98,NE,44,0.0,0.0,76,0.00,,,0.00,Wunderground v.1.15,2013-08-09 14:20:00,
2013-08-09 09:30:00,69.2,59.8,29.98,North,8,0.0,0.0,72,0.00,,,0.00,Wunderground v.1.15,2013-08-09 14:30:00,
2013-08-09 09:35:00,69.6,60.2,29.97,North,7,0.0,0.0,72,0.00,,,0.00,Wunderground v.1.15,2013-08-09 14:35:00,
2013-08-09 09:45:00,70.4,60.9,29.98,North,8,0.0,0.0,72,0.00,,,0.00,Wunderground v.1.15,2013-08-09 14:45:00,
2013-08-09 09:55:00,70.9,61.4,29.99,North,8,0.0,0.0,72,0.00,,,0.00,Wunderground v.1.15,2013-08-09 14:55:00,
2013-08-09 10:05:00,71.9,62.0,29.99,North,8,0.0,0.0,71,0.00,,,0.00,Wunderground v.1.15,2013-08-09 15:05:00,
2013-08-09 10:10:00,72.4,62.5,29.98,North,1,0.0,0.0,71,0.00,,,0.00,Wunderground v.1.15,2013-08-09 15:10:00,
2013-08-09 10:20:00,73.3,62.9,29.98,East,80,0.0,0.0,70,0.00,,,0.00,Wunderground v.1.15,2013-08-09 15:20:00,
2013-08-09 10:30:00,74.1,63.3,29.99,ENE,67,0.0,0.0,69,0.00,,,0.00,Wunderground v.1.15,2013-08-09 15:30:00,
2013-08-09 10:40:00,74.7,65.1,29.98,ENE,67,0.0,0.0,72,0.00,,,0.00,Wunderground v.1.15,2013-08-09 15:40:00,
2013-08-09 10:50:00,75.1,64.6,29.98,ENE,59,0.0,0.0,70,0.00,,,0.00,Wunderground v.1.15,2013-08-09 15:50:00,
2013-08-09 11:00:00,75.7,66.0,29.98,ENE,59,0.0,0.0,72,0.00,,,0.00,Wunderground v.1.15,2013-08-09 16:00:00,
2013-08-09 11:10:00,76.1,65.6,29.98,NE,34,0.0,0.0,70,0.00,,,0.00,Wunderground v.1.15,2013-08-09 16:10:00,
2013-08-09 11:20:00,76.8,65.4,29.98,SE,145,0.0,0.0,68,0.00,,,0.00,Wunderground v.1.15,2013-08-09 16:20:00,
2013-08-09 11:25:00,77.4,65.6,29.98,ENE,65,0.0,0.0,67,0.00,,,0.00,Wunderground v.1.15,2013-08-09 16:25:00,
2013-08-09 11:35:00,77.4,65.6,29.97,NE,51,0.0,0.0,67,0.00,,,0.00,Wunderground v.1.15,2013-08-09 16:35:00,
2013-08-09 11:40:00,77.6,64.5,29.97,East,94,0.0,0.0,64,0.00,,,0.00,Wunderground v.1.15,2013-08-09 16:40:00,
2013-08-09 11:50:00,76.4,65.1,29.97,East,94,0.0,1.0,68,0.00,,,0.00,Wunderground v.1.15,2013-08-09 16:50:00,
2013-08-09 11:55:00,76.0,65.5,29.97,ENE,77,0.0,1.0,70,0.00,,,0.00,Wunderground v.1.15,2013-08-09 16:55:00,
2013-08-09 12:05:00,75.1,65.9,29.97,ESE,116,0.0,0.0,73,0.00,,,0.00,Wunderground v.1.15,2013-08-09 17:05:00,
2013-08-09 12:10:00,75.1,66.6,29.97,SE,145,0.0,0.0,75,0.00,,,0.00,Wunderground v.1.15,2013-08-09 17:10:00,
2013-08-09 12:20:00,75.6,67.1,29.97,SE,140,0.0,0.0,75,0.00,,,0.00,Wunderground v.1.15,2013-08-09 17:20:00,
2013-08-09 12:30:00,75.5,66.6,29.97,WSW,245,0.0,0.0,74,0.00,,,0.00,Wunderground v.1.15,2013-08-09 17:30:00,
2013-08-09 12:40:00,74.7,65.9,29.97,WSW,245,0.0,0.0,74,0.00,,,0.00,Wunderground v.1.15,2013-08-09 17:40:00,
2013-08-09 12:50:00,74.1,64.9,29.97,SSW,213,0.0,0.0,73,0.00,,,0.00,Wunderground v.1.15,2013-08-09 17:50:00,
2013-08-09 13:00:00,73.7,65.3,29.98,SSW,213,0.0,0.0,75,0.00,,,0.00,Wunderground v.1.15,2013-08-09 18:00:00,
2013-08-09 13:10:00,73.1,65.1,29.98,SSW,213,0.0,0.0,76,0.00,,,0.00,Wunderground v.1.15,2013-08-09 18:10:00,
2013-08-09 13:20:00,73.3,66.0,29.97,SSW,213,0.0,0.0,78,0.00,,,0.00,Wunderground v.1.15,2013-08-09 18:20:00,
2013-08-09 13:25:00,74.0,66.3,29.97,SSW,212,0.0,0.0,77,0.00,,,0.00,Wunderground v.1.15,2013-08-09 18:25:00,
2013-08-09 13:35:00,75.0,67.3,29.97,WSW,238,0.0,0.0,77,0.00,,,0.00,Wunderground v.1.15,2013-08-09 18:35:00,
2013-08-09 13:45:00,76.0,67.5,29.97,WSW,238,0.0,0.0,75,0.00,,,0.00,Wunderground v.1.15,2013-08-09 18:45:00,
2013-08-09 13:50:00,76.6,68.1,29.97,WSW,251,0.0,0.0,75,0.00,,,0.00,Wunderground v.1.15,2013-08-09 18:50:00,
2013-08-09 14:00:00,76.7,67.4,29.97,NW,304,0.0,0.0,73,0.00,,,0.00,Wunderground v.1.15,2013-08-09 19:00:00,
2013-08-09 14:05:00,76.6,68.5,29.97,NW,304,0.0,0.0,76,0.00,,,0.00,Wunderground v.1.15,2013-08-09 19:05:00,
2013-08-09 14:15:00,76.5,67.6,29.96,WNW,288,0.0,0.0,74,0.00,,,0.00,Wunderground v.1.15,2013-08-09 19:15:00,
2013-08-09 14:25:00,76.7,66.6,29.97,North,352,0.0,0.0,71,0.00,,,0.00,Wunderground v.1.15,2013-08-09 19:25:00,
2013-08-09 14:30:00,76.5,67.2,29.97,North,352,0.0,0.0,73,0.00,,,0.00,Wunderground v.1.15,2013-08-09 19:30:00,
2013-08-09 14:40:00,76.3,65.8,29.97,North,352,0.0,0.0,70,0.00,,,0.00,Wunderground v.1.15,2013-08-09 19:40:00,
2013-08-09 14:50:00,76.6,66.5,29.96,NNE,19,0.0,0.0,71,0.00,,,0.00,Wunderground v.1.15,2013-08-09 19:50:00,
2013-08-09 15:00:00,76.7,67.8,29.97,North,5,0.0,0.0,74,0.00,,,0.00,Wunderground v.1.15,2013-08-09 20:00:00,
2013-08-09 15:05:00,77.1,67.8,29.97,North,5,0.0,0.0,73,0.00,,,0.00,Wunderground v.1.15,2013-08-09 20:05:00,
2013-08-09 15:10:00,77.4,67.3,29.96,NNE,17,0.0,0.0,71,0.00,,,0.00,Wunderground v.1.15,2013-08-09 20:10:00,
2013-08-09 15:15:00,77.9,66.9,29.96,NE,48,0.0,0.0,69,0.00,,,0.00,Wunderground v.1.15,2013-08-09 20:15:00,
2013-08-09 15:20:00,78.2,67.2,29.96,NE,53,0.0,0.0,69,0.00,,,0.00,Wunderground v.1.15,2013-08-09 20:20:00,
2013-08-09 15:25:00,78.0,67.0,29.96,North,1,0.0,0.0,69,0.00,,,0.00,Wunderground v.1.15,2013-08-09 20:25:00,
2013-08-09 15:35:00,77.9,66.1,29.96,North,2,0.0,0.0,67,0.00,,,0.00,Wunderground v.1.15,2013-08-09 20:35:00,
2013-08-09 15:40:00,77.8,66.8,29.96,North,2,0.0,0.0,69,0.00,,,0.00,Wunderground v.1.15,2013-08-09 20:40:00,
2013-08-09 15:50:00,77.5,67.4,29.96,North,2,0.0,0.0,71,0.00,,,0.00,Wunderground v.1.15,2013-08-09 20:50:00,
2013-08-09 16:00:00,77.2,67.5,29.96,North,2,0.0,0.0,72,0.00,,,0.00,Wunderground v.1.15,2013-08-09 21:00:00,
2013-08-09 16:05:00,77.6,67.9,29.96,North,2,0.0,0.0,72,0.00,,,0.00,Wunderground v.1.15,2013-08-09 21:05:00,
2013-08-09 16:15:00,77.3,66.3,29.96,North,2,0.0,0.0,69,0.00,,,0.00,Wunderground v.1.15,2013-08-09 21:15:00,
2013-08-09 16:20:00,77.1,67.0,29.96,North,2,0.0,0.0,71,0.00,,,0.00,Wunderground v.1.15,2013-08-09 21:20:00,
2013-08-09 16:30:00,77.4,68.5,29.96,NNE,13,0.0,0.0,74,0.00,,,0.00,Wunderground v.1.15,2013-08-09 21:30:00,
2013-08-09 16:40:00,77.8,67.6,29.96,North,360,0.0,0.0,71,0.00,,,0.00,Wunderground v.1.15,2013-08-09 21:40:00,
2013-08-09 16:50:00,77.5,67.8,29.96,North,360,0.0,0.0,72,0.00,,,0.00,Wunderground v.1.15,2013-08-09 21:50:00,
2013-08-09 17:00:00,77.2,67.9,29.96,South,172,0.0,0.0,73,0.00,,,0.00,Wunderground v.1.15,2013-08-09 22:00:00,
2013-08-09 17:05:00,77.2,68.7,29.96,South,172,0.0,0.0,75,0.00,,,0.00,Wunderground v.1.15,2013-08-09 22:05:00,
2013-08-09 17:10:00,77.0,68.1,29.96,South,172,0.0,0.0,74,0.00,,,0.00,Wunderground v.1.15,2013-08-09 22:10:00,
2013-08-09 17:20:00,76.5,68.4,29.96,South,172,0.0,0.0,76,0.00,,,0.00,Wunderground v.1.15,2013-08-09 22:20:00,
2013-08-09 17:25:00,76.3,68.2,29.96,South,172,0.0,0.0,76,0.00,,,0.00,Wunderground v.1.15,2013-08-09 22:25:00,
2013-08-09 17:35:00,75.8,67.3,29.96,South,172,0.0,0.0,75,0.00,,,0.00,Wunderground v.1.15,2013-08-09 22:35:00,
2013-08-09 17:40:00,75.5,67.4,29.96,ENE,60,0.0,0.0,76,0.00,,,0.00,Wunderground v.1.15,2013-08-09 22:40:00,
2013-08-09 17:50:00,75.4,68.1,29.96,ENE,60,0.0,0.0,78,0.00,,,0.00,Wunderground v.1.15,2013-08-09 22:50:00,
2013-08-09 17:55:00,75.2,67.1,29.96,ENE,60,0.0,0.0,76,0.00,,,0.00,Wunderground v.1.15,2013-08-09 22:55:00,
2013-08-09 18:05:00,74.8,66.3,29.96,ENE,60,0.0,0.0,75,0.00,,,0.00,Wunderground v.1.15,2013-08-09 23:05:00,
2013-08-09 18:10:00,74.8,67.5,29.96,ENE,60,0.0,0.0,78,0.00,,,0.00,Wunderground v.1.15,2013-08-09 23:10:00,
2013-08-09 18:20:00,74.7,67.8,29.96,ENE,60,0.0,0.0,79,0.00,,,0.00,Wunderground v.1.15,2013-08-09 23:20:00,
2013-08-09 18:25:00,74.4,67.1,29.96,ENE,60,0.0,0.0,78,0.00,,,0.00,Wunderground v.1.15,2013-08-09 23:25:00,
2013-08-09 18:35:00,74.1,66.4,29.96,ENE,60,0.0,0.0,77,0.00,,,0.00,Wunderground v.1.15,2013-08-09 23:35:00,
2013-08-09 18:40:00,74.0,67.1,29.96,ENE,60,0.0,0.0,79,0.00,,,0.00,Wunderground v.1.15,2013-08-09 23:40:00,
2013-08-09 18:50:00,73.6,66.7,29.96,ENE,60,0.0,0.0,79,0.00,,,0.00,Wunderground v.1.15,2013-08-09 23:50:00,
2013-08-09 19:00:00,73.4,67.2,29.96,ENE,60,0.0,0.0,81,0.00,,,0.00,Wunderground v.1.15,2013-08-10 00:00:00,
2013-08-09 19:05:00,73.2,67.0,29.96,ENE,60,0.0,0.0,81,0.00,,,0.00,Wunderground v.1.15,2013-08-10 00:05:00,
2013-08-09 19:10:00,73.1,66.9,29.96,ENE,60,0.0,0.0,81,0.00,,,0.00,Wunderground v.1.15,2013-08-10 00:10:00,
2013-08-09 19:20:00,73.0,66.8,29.97,ENE,60,0.0,0.0,81,0.00,,,0.00,Wunderground v.1.15,2013-08-10 00:20:00,
2013-08-09 19:30:00,72.7,66.5,29.97,ENE,60,0.0,0.0,81,0.00,,,0.00,Wunderground v.1.15,2013-08-10 00:30:00,
2013-08-09 19:40:00,72.2,66.4,29.97,ENE,60,0.0,0.0,82,0.00,,,0.00,Wunderground v.1.15,2013-08-10 00:40:00,
2013-08-09 19:50:00,71.7,66.3,29.97,ENE,60,0.0,0.0,83,0.00,,,0.00,Wunderground v.1.15,2013-08-10 00:50:00,
2013-08-09 20:00:00,71.2,65.8,29.97,ENE,60,0.0,0.0,83,0.00,,,0.00,Wunderground v.1.15,2013-08-10 01:00:00,
2013-08-09 20:10:00,70.8,65.7,29.98,ENE,60,0.0,0.0,84,0.00,,,0.00,Wunderground v.1.15,2013-08-10 01:10:00,
2013-08-09 20:20:00,70.3,65.6,29.98,ENE,60,0.0,0.0,85,0.00,,,0.00,Wunderground v.1.15,2013-08-10 01:20:00,
2013-08-09 20:30:00,69.9,65.5,29.99,ENE,60,0.0,0.0,86,0.00,,,0.00,Wunderground v.1.15,2013-08-10 01:30:00,
2013-08-09 20:40:00,69.7,65.7,29.99,ENE,60,0.0,0.0,87,0.00,,,0.00,Wunderground v.1.15,2013-08-10 01:40:00,
2013-08-09 20:45:00,69.7,66.0,29.99,ENE,60,0.0,0.0,88,0.00,,,0.00,Wunderground v.1.15,2013-08-10 01:45:00,
2013-08-09 20:50:00,69.5,65.8,29.99,ENE,60,0.0,0.0,88,0.00,,,0.00,Wunderground v.1.15,2013-08-10 01:50:00,
2013-08-09 20:55:00,69.2,65.5,29.99,ENE,60,0.0,0.0,88,0.00,,,0.00,Wunderground v.1.15,2013-08-10 01:55:00,
2013-08-09 21:05:00,68.9,65.2,30.00,ENE,60,0.0,0.0,88,0.00,,,0.00,Wunderground v.1.15,2013-08-10 02:05:00,
2013-08-09 21:10:00,68.7,65.0,30.00,ENE,60,0.0,0.0,88,0.00,,,0.00,Wunderground v.1.15,2013-08-10 02:10:00,
2013-08-09 21:20:00,68.5,65.1,30.00,ENE,60,0.0,0.0,89,0.00,,,0.00,Wunderground v.1.15,2013-08-10 02:20:00,
2013-08-09 21:30:00,68.2,64.8,30.00,ENE,60,0.0,0.0,89,0.00,,,0.00,Wunderground v.1.15,2013-08-10 02:30:00,
2013-08-09 21:35:00,67.9,64.5,30.00,ENE,60,0.0,0.0,89,0.00,,,0.00,Wunderground v.1.15,2013-08-10 02:35:00,
2013-08-09 21:40:00,67.7,64.3,30.00,ENE,60,0.0,0.0,89,0.00,,,0.00,Wunderground v.1.15,2013-08-10 02:40:00,
2013-08-09 21:45:00,67.5,64.1,30.00,ENE,60,0.0,0.0,89,0.00,,,0.00,Wunderground v.1.15,2013-08-10 02:45:00,
2013-08-09 21:55:00,67.0,63.6,30.01,ENE,60,0.0,0.0,89,0.00,,,0.00,Wunderground v.1.15,2013-08-10 02:55:00,
2013-08-09 22:05:00,66.8,63.5,30.01,ENE,60,0.0,0.0,89,0.00,,,0.00,Wunderground v.1.15,2013-08-10 03:05:00,
2013-08-09 22:10:00,66.6,63.3,30.01,ENE,60,0.0,0.0,89,0.00,,,0.00,Wunderground v.1.15,2013-08-10 03:10:00,
2013-08-09 22:15:00,66.5,63.2,30.01,ENE,60,0.0,0.0,89,0.00,,,0.00,Wunderground v.1.15,2013-08-10 03:15:00,
2013-08-09 22:25:00,66.3,63.3,30.02,ENE,60,0.0,0.0,90,0.00,,,0.00,Wunderground v.1.15,2013-08-10 03:25:00,
2013-08-09 22:35:00,66.3,63.3,30.02,ENE,60,0.0,0.0,90,0.00,,,0.00,Wunderground v.1.15,2013-08-10 03:35:00,
2013-08-09 22:40:00,66.2,63.2,30.02,ENE,60,0.0,0.0,90,0.00,,,0.00,Wunderground v.1.15,2013-08-10 03:40:00,
2013-08-09 22:50:00,66.0,63.0,30.02,ENE,60,0.0,0.0,90,0.00,,,0.00,Wunderground v.1.15,2013-08-10 03:50:00,
2013-08-09 23:00:00,65.6,62.3,30.02,ENE,60,0.0,0.0,89,0.00,,,0.00,Wunderground v.1.15,2013-08-10 04:00:00,
2013-08-09 23:05:00,65.6,62.3,30.02,ENE,60,0.0,0.0,89,0.00,,,0.00,Wunderground v.1.15,2013-08-10 04:05:00,
2013-08-09 23:10:00,65.4,62.1,30.03,ENE,60,0.0,0.0,89,0.00,,,0.00,Wunderground v.1.15,2013-08-10 04:10:00,
2013-08-09 23:20:00,65.3,62.0,30.02,ENE,60,0.0,0.0,89,0.00,,,0.00,Wunderground v.1.15,2013-08-10 04:20:00,
2013-08-09 23:25:00,65.2,61.9,30.03,ENE,60,0.0,0.0,89,0.00,,,0.00,Wunderground v.1.15,2013-08-10 04:25:00,
2013-08-09 23:30:00,65.1,61.5,30.03,ENE,60,0.0,0.0,88,0.00,,,0.00,Wunderground v.1.15,2013-08-10 04:30:00,
2013-08-09 23:40:00,64.9,61.3,30.03,ENE,60,0.0,0.0,88,0.00,,,0.00,Wunderground v.1.15,2013-08-10 04:40:00,
2013-08-09 23:45:00,64.7,61.1,30.03,ENE,60,0.0,0.0,88,0.00,,,0.00,Wunderground v.1.15,2013-08-10 04:45:00,
2013-08-09 23:55:00,64.5,60.9,30.03,ENE,60,0.0,0.0,88,0.00,,,0.00,Wunderground v.1.15,2013-08-10 04:55:00,